sensor_id;sensor_type;location;lat;lon;timestamp;temperature;humidity
35240;DHT22;21376;50.954;4.716;2023-05-16T00:02:21;9.40;99.90
35240;DHT22;21376;50.954;4.716;2023-05-16T00:04:48;9.40;99.90
35240;DHT22;21376;50.954;4.716;2023-05-16T00:07:13;9.20;99.90
35240;DHT22;21376;50.954;4.716;2023-05-16T00:09:42;9.10;99.90
35240;DHT22;21376;50.954;4.716;2023-05-16T00:12:08;9.00;99.90
35240;DHT22;21376;50.954;4.716;2023-05-16T00:14:38;9.00;99.90
35240;DHT22;21376;50.954;4.716;2023-05-16T00:23:00;8.80;99.90
35240;DHT22;21376;50.954;4.716;2023-05-16T00:25:28;8.60;99.90
35240;DHT22;21376;50.954;4.716;2023-05-16T00:27:55;8.60;99.90
35240;DHT22;21376;50.954;4.716;2023-05-16T00:32:53;8.60;99.90
35240;DHT22;21376;50.954;4.716;2023-05-16T00:38:02;8.40;99.90
35240;DHT22;21376;50.954;4.716;2023-05-16T00:40:28;8.40;99.90
35240;DHT22;21376;50.954;4.716;2023-05-16T00:42:55;8.40;99.90
35240;DHT22;21376;50.954;4.716;2023-05-16T00:45:24;8.30;99.90
35240;DHT22;21376;50.954;4.716;2023-05-16T00:47:51;8.30;99.90
35240;DHT22;21376;50.954;4.716;2023-05-16T00:50:20;8.40;99.90
35240;DHT22;21376;50.954;4.716;2023-05-16T00:52:46;8.30;99.90
35240;DHT22;21376;50.954;4.716;2023-05-16T00:55:12;8.30;99.90
35240;DHT22;21376;50.954;4.716;2023-05-16T00:57:39;8.20;99.90
35240;DHT22;21376;50.954;4.716;2023-05-16T01:00:12;8.10;99.90
35240;DHT22;21376;50.954;4.716;2023-05-16T01:05:13;7.90;99.90
35240;DHT22;21376;50.954;4.716;2023-05-16T01:07:41;7.90;99.90
35240;DHT22;21376;50.954;4.716;2023-05-16T01:10:07;7.80;99.90
35240;DHT22;21376;50.954;4.716;2023-05-16T01:26:42;7.70;99.90
35240;DHT22;21376;50.954;4.716;2023-05-16T01:29:10;7.60;99.90
35240;DHT22;21376;50.954;4.716;2023-05-16T01:31:40;7.60;99.90
35240;DHT22;21376;50.954;4.716;2023-05-16T01:34:08;7.60;99.90
35240;DHT22;21376;50.954;4.716;2023-05-16T01:39:36;7.50;99.90
35240;DHT22;21376;50.954;4.716;2023-05-16T01:41:58;7.50;99.90
35240;DHT22;21376;50.954;4.716;2023-05-16T01:44:35;7.60;99.90
35240;DHT22;21376;50.954;4.716;2023-05-16T01:47:09;7.50;99.90
35240;DHT22;21376;50.954;4.716;2023-05-16T01:57:46;7.40;99.90
35240;DHT22;21376;50.954;4.716;2023-05-16T02:00:14;7.40;99.90
35240;DHT22;21376;50.954;4.716;2023-05-16T02:05:10;7.20;99.90
35240;DHT22;21376;50.954;4.716;2023-05-16T02:07:35;7.20;99.90
35240;DHT22;21376;50.954;4.716;2023-05-16T02:10:01;7.30;99.90
35240;DHT22;21376;50.954;4.716;2023-05-16T02:12:35;7.20;99.90
35240;DHT22;21376;50.954;4.716;2023-05-16T02:18:02;7.10;99.90
35240;DHT22;21376;50.954;4.716;2023-05-16T02:20:28;7.10;99.90
35240;DHT22;21376;50.954;4.716;2023-05-16T02:22:55;7.10;99.90
35240;DHT22;21376;50.954;4.716;2023-05-16T02:27:52;7.00;99.90
35240;DHT22;21376;50.954;4.716;2023-05-16T02:32:56;6.90;99.90
35240;DHT22;21376;50.954;4.716;2023-05-16T02:37:51;6.80;99.90
35240;DHT22;21376;50.954;4.716;2023-05-16T02:40:30;6.80;99.90
35240;DHT22;21376;50.954;4.716;2023-05-16T02:43:02;6.80;99.90
35240;DHT22;21376;50.954;4.716;2023-05-16T02:45:31;6.60;99.90
35240;DHT22;21376;50.954;4.716;2023-05-16T02:48:00;6.60;99.90
35240;DHT22;21376;50.954;4.716;2023-05-16T02:50:31;6.70;99.90
35240;DHT22;21376;50.954;4.716;2023-05-16T02:52:57;6.70;99.90
35240;DHT22;21376;50.954;4.716;2023-05-16T02:57:53;6.60;99.90
35240;DHT22;21376;50.954;4.716;2023-05-16T03:00:20;6.60;99.90
35240;DHT22;21376;50.954;4.716;2023-05-16T03:02:46;6.50;99.90
35240;DHT22;21376;50.954;4.716;2023-05-16T03:05:15;6.50;99.90
35240;DHT22;21376;50.954;4.716;2023-05-16T03:07:52;6.60;99.90
35240;DHT22;21376;50.954;4.716;2023-05-16T03:12:56;6.50;99.90
35240;DHT22;21376;50.954;4.716;2023-05-16T03:15:25;6.50;99.90
35240;DHT22;21376;50.954;4.716;2023-05-16T03:22:49;6.50;99.90
35240;DHT22;21376;50.954;4.716;2023-05-16T03:25:16;6.50;99.90
35240;DHT22;21376;50.954;4.716;2023-05-16T03:30:13;6.40;99.90
35240;DHT22;21376;50.954;4.716;2023-05-16T03:32:44;6.40;99.90
35240;DHT22;21376;50.954;4.716;2023-05-16T03:35:13;6.40;99.90
35240;DHT22;21376;50.954;4.716;2023-05-16T03:37:46;6.40;99.90
35240;DHT22;21376;50.954;4.716;2023-05-16T03:42:45;6.30;99.90
35240;DHT22;21376;50.954;4.716;2023-05-16T03:45:14;6.30;99.90
35240;DHT22;21376;50.954;4.716;2023-05-16T03:50:12;6.20;99.90
35240;DHT22;21376;50.954;4.716;2023-05-16T03:55:06;6.30;99.90
35240;DHT22;21376;50.954;4.716;2023-05-16T03:57:34;6.30;99.90
35240;DHT22;21376;50.954;4.716;2023-05-16T04:00:02;6.20;99.90
35240;DHT22;21376;50.954;4.716;2023-05-16T04:02:32;6.20;99.90
35240;DHT22;21376;50.954;4.716;2023-05-16T04:04:59;6.20;99.90
35240;DHT22;21376;50.954;4.716;2023-05-16T04:12:50;6.40;99.90
35240;DHT22;21376;50.954;4.716;2023-05-16T04:15:15;6.40;99.90
35240;DHT22;21376;50.954;4.716;2023-05-16T04:22:45;6.30;99.90
35240;DHT22;21376;50.954;4.716;2023-05-16T04:27:50;6.40;99.90
35240;DHT22;21376;50.954;4.716;2023-05-16T04:30:17;6.40;99.90
35240;DHT22;21376;50.954;4.716;2023-05-16T04:32:45;6.50;99.90
35240;DHT22;21376;50.954;4.716;2023-05-16T04:35:12;6.50;99.90
35240;DHT22;21376;50.954;4.716;2023-05-16T04:37:41;6.60;99.90
35240;DHT22;21376;50.954;4.716;2023-05-16T04:42:39;6.70;99.90
35240;DHT22;21376;50.954;4.716;2023-05-16T04:47:37;6.90;99.90
35240;DHT22;21376;50.954;4.716;2023-05-16T04:50:05;7.00;99.90
35240;DHT22;21376;50.954;4.716;2023-05-16T04:57:35;7.30;99.90
35240;DHT22;21376;50.954;4.716;2023-05-16T05:00:05;7.40;99.90
35240;DHT22;21376;50.954;4.716;2023-05-16T05:02:36;7.40;99.90
35240;DHT22;21376;50.954;4.716;2023-05-16T05:05:04;7.50;99.90
35240;DHT22;21376;50.954;4.716;2023-05-16T05:07:31;7.70;99.90
35240;DHT22;21376;50.954;4.716;2023-05-16T05:10:00;7.80;99.90
35240;DHT22;21376;50.954;4.716;2023-05-16T05:12:26;7.80;99.90
35240;DHT22;21376;50.954;4.716;2023-05-16T05:14:53;7.90;99.90
35240;DHT22;21376;50.954;4.716;2023-05-16T05:22:44;7.90;99.90
35240;DHT22;21376;50.954;4.716;2023-05-16T05:25:10;8.10;99.90
35240;DHT22;21376;50.954;4.716;2023-05-16T05:27:37;8.40;99.90
35240;DHT22;21376;50.954;4.716;2023-05-16T05:30:03;8.40;99.90
35240;DHT22;21376;50.954;4.716;2023-05-16T05:32:29;8.40;99.90
35240;DHT22;21376;50.954;4.716;2023-05-16T05:34:56;8.70;99.90
35240;DHT22;21376;50.954;4.716;2023-05-16T05:37:28;8.70;99.90
35240;DHT22;21376;50.954;4.716;2023-05-16T05:42:27;10.00;99.90
35240;DHT22;21376;50.954;4.716;2023-05-16T05:44:58;11.70;99.90
35240;DHT22;21376;50.954;4.716;2023-05-16T05:47:24;13.50;99.90
35240;DHT22;21376;50.954;4.716;2023-05-16T05:52:20;13.40;99.90
35240;DHT22;21376;50.954;4.716;2023-05-16T05:57:39;14.90;99.90
35240;DHT22;21376;50.954;4.716;2023-05-16T06:02:43;19.10;99.90
35240;DHT22;21376;50.954;4.716;2023-05-16T06:05:09;20.90;99.90
35240;DHT22;21376;50.954;4.716;2023-05-16T06:07:41;22.50;99.90
35240;DHT22;21376;50.954;4.716;2023-05-16T06:10:09;23.30;99.90
35240;DHT22;21376;50.954;4.716;2023-05-16T06:12:36;24.50;98.80
35240;DHT22;21376;50.954;4.716;2023-05-16T06:15:03;25.10;95.90
35240;DHT22;21376;50.954;4.716;2023-05-16T06:17:31;25.80;94.70
35240;DHT22;21376;50.954;4.716;2023-05-16T06:19:56;25.20;94.50
35240;DHT22;21376;50.954;4.716;2023-05-16T06:22:23;25.50;93.10
35240;DHT22;21376;50.954;4.716;2023-05-16T06:24:52;25.40;91.80
35240;DHT22;21376;50.954;4.716;2023-05-16T06:32:29;25.70;88.30
35240;DHT22;21376;50.954;4.716;2023-05-16T06:35:05;24.70;90.30
35240;DHT22;21376;50.954;4.716;2023-05-16T06:37:33;25.60;88.50
35240;DHT22;21376;50.954;4.716;2023-05-16T06:39:59;26.00;90.00
35240;DHT22;21376;50.954;4.716;2023-05-16T06:42:26;26.00;87.70
35240;DHT22;21376;50.954;4.716;2023-05-16T06:44:55;25.80;89.90
35240;DHT22;21376;50.954;4.716;2023-05-16T06:47:27;26.50;87.70
35240;DHT22;21376;50.954;4.716;2023-05-16T06:49:56;27.90;86.30
35240;DHT22;21376;50.954;4.716;2023-05-16T06:54:53;25.70;84.00
35240;DHT22;21376;50.954;4.716;2023-05-16T06:57:29;25.10;84.30
35240;DHT22;21376;50.954;4.716;2023-05-16T07:02:46;25.70;88.70
35240;DHT22;21376;50.954;4.716;2023-05-16T07:05:14;25.20;85.90
35240;DHT22;21376;50.954;4.716;2023-05-16T07:07:39;25.50;87.50
35240;DHT22;21376;50.954;4.716;2023-05-16T07:10:06;26.20;84.20
35240;DHT22;21376;50.954;4.716;2023-05-16T07:12:34;27.30;82.10
35240;DHT22;21376;50.954;4.716;2023-05-16T07:15:00;27.80;80.20
35240;DHT22;21376;50.954;4.716;2023-05-16T07:17:28;27.90;79.00
35240;DHT22;21376;50.954;4.716;2023-05-16T07:19:55;27.70;77.60
35240;DHT22;21376;50.954;4.716;2023-05-16T07:22:27;26.60;77.00
35240;DHT22;21376;50.954;4.716;2023-05-16T07:24:55;23.90;84.20
35240;DHT22;21376;50.954;4.716;2023-05-16T07:27:27;22.50;87.60
35240;DHT22;21376;50.954;4.716;2023-05-16T07:29:54;22.00;84.70
35240;DHT22;21376;50.954;4.716;2023-05-16T07:32:20;20.20;89.30
35240;DHT22;21376;50.954;4.716;2023-05-16T07:34:52;19.30;91.90
35240;DHT22;21376;50.954;4.716;2023-05-16T07:37:20;19.20;92.90
35240;DHT22;21376;50.954;4.716;2023-05-16T07:39:51;18.50;92.80
35240;DHT22;21376;50.954;4.716;2023-05-16T07:42:19;17.20;92.90
35240;DHT22;21376;50.954;4.716;2023-05-16T07:44:48;17.40;94.10
35240;DHT22;21376;50.954;4.716;2023-05-16T07:47:15;18.30;93.60
35240;DHT22;21376;50.954;4.716;2023-05-16T07:49:44;18.60;94.00
35240;DHT22;21376;50.954;4.716;2023-05-16T07:52:11;18.80;95.20
35240;DHT22;21376;50.954;4.716;2023-05-16T07:57:05;20.30;92.50
35240;DHT22;21376;50.954;4.716;2023-05-16T08:02:03;20.10;93.10
35240;DHT22;21376;50.954;4.716;2023-05-16T08:04:30;21.50;90.00
35240;DHT22;21376;50.954;4.716;2023-05-16T08:06:56;21.20;92.10
35240;DHT22;21376;50.954;4.716;2023-05-16T08:09:23;20.70;91.70
35240;DHT22;21376;50.954;4.716;2023-05-16T08:11:51;22.10;90.80
35240;DHT22;21376;50.954;4.716;2023-05-16T08:16:48;20.40;90.50
35240;DHT22;21376;50.954;4.716;2023-05-16T08:19:16;20.00;91.50
35240;DHT22;21376;50.954;4.716;2023-05-16T08:21:49;22.20;88.70
35240;DHT22;21376;50.954;4.716;2023-05-16T08:24:17;24.00;85.20
35240;DHT22;21376;50.954;4.716;2023-05-16T08:26:44;24.90;83.00
35240;DHT22;21376;50.954;4.716;2023-05-16T08:29:12;27.00;75.80
35240;DHT22;21376;50.954;4.716;2023-05-16T08:31:38;28.10;82.00
35240;DHT22;21376;50.954;4.716;2023-05-16T08:34:03;28.80;73.50
35240;DHT22;21376;50.954;4.716;2023-05-16T08:36:31;28.20;71.70
35240;DHT22;21376;50.954;4.716;2023-05-16T08:38:59;29.20;74.70
35240;DHT22;21376;50.954;4.716;2023-05-16T08:41:24;30.20;74.70
35240;DHT22;21376;50.954;4.716;2023-05-16T08:43:52;30.00;67.30
35240;DHT22;21376;50.954;4.716;2023-05-16T08:46:20;28.90;70.20
35240;DHT22;21376;50.954;4.716;2023-05-16T08:48:57;28.50;78.90
35240;DHT22;21376;50.954;4.716;2023-05-16T08:54:09;28.20;77.10
35240;DHT22;21376;50.954;4.716;2023-05-16T08:59:39;27.40;76.10
35240;DHT22;21376;50.954;4.716;2023-05-16T09:02:13;25.60;75.20
35240;DHT22;21376;50.954;4.716;2023-05-16T09:04:39;24.50;81.00
35240;DHT22;21376;50.954;4.716;2023-05-16T09:07:06;22.70;81.70
35240;DHT22;21376;50.954;4.716;2023-05-16T09:14:53;23.60;86.40
35240;DHT22;21376;50.954;4.716;2023-05-16T09:17:30;25.50;83.00
35240;DHT22;21376;50.954;4.716;2023-05-16T09:22:29;23.80;82.30
35240;DHT22;21376;50.954;4.716;2023-05-16T09:24:54;23.40;77.30
35240;DHT22;21376;50.954;4.716;2023-05-16T09:27:21;22.10;81.80
35240;DHT22;21376;50.954;4.716;2023-05-16T09:29:49;22.90;82.20
35240;DHT22;21376;50.954;4.716;2023-05-16T09:32:15;24.90;76.00
35240;DHT22;21376;50.954;4.716;2023-05-16T09:34:45;28.30;81.00
35240;DHT22;21376;50.954;4.716;2023-05-16T09:37:13;29.10;68.40
35240;DHT22;21376;50.954;4.716;2023-05-16T09:39:40;29.50;70.40
35240;DHT22;21376;50.954;4.716;2023-05-16T09:42:22;29.80;69.70
35240;DHT22;21376;50.954;4.716;2023-05-16T09:44:53;29.50;70.40
35240;DHT22;21376;50.954;4.716;2023-05-16T09:52:40;28.80;65.90
35240;DHT22;21376;50.954;4.716;2023-05-16T09:55:06;28.90;66.90
35240;DHT22;21376;50.954;4.716;2023-05-16T09:57:32;27.00;71.30
35240;DHT22;21376;50.954;4.716;2023-05-16T10:02:32;25.50;75.80
35240;DHT22;21376;50.954;4.716;2023-05-16T10:07:33;25.10;78.10
35240;DHT22;21376;50.954;4.716;2023-05-16T10:12:36;28.10;70.70
35240;DHT22;21376;50.954;4.716;2023-05-16T10:17:47;26.90;67.60
35240;DHT22;21376;50.954;4.716;2023-05-16T10:20:18;26.70;68.00
35240;DHT22;21376;50.954;4.716;2023-05-16T10:22:44;25.80;69.50
35240;DHT22;21376;50.954;4.716;2023-05-16T10:30:26;29.80;66.70
35240;DHT22;21376;50.954;4.716;2023-05-16T10:32:52;31.20;65.40
35240;DHT22;21376;50.954;4.716;2023-05-16T10:35:22;31.00;62.20
35240;DHT22;21376;50.954;4.716;2023-05-16T10:37:51;29.70;60.50
35240;DHT22;21376;50.954;4.716;2023-05-16T10:40:17;29.70;60.70
35240;DHT22;21376;50.954;4.716;2023-05-16T10:45:38;29.40;57.20
35240;DHT22;21376;50.954;4.716;2023-05-16T10:48:04;28.50;58.50
35240;DHT22;21376;50.954;4.716;2023-05-16T10:50:37;28.50;62.40
35240;DHT22;21376;50.954;4.716;2023-05-16T10:58:41;23.50;69.60
35240;DHT22;21376;50.954;4.716;2023-05-16T11:01:20;22.80;73.90
35240;DHT22;21376;50.954;4.716;2023-05-16T11:17:12;25.10;66.10
35240;DHT22;21376;50.954;4.716;2023-05-16T11:19:46;26.10;66.70
35240;DHT22;21376;50.954;4.716;2023-05-16T11:32:20;23.80;72.40
35240;DHT22;21376;50.954;4.716;2023-05-16T11:34:50;22.70;72.40
35240;DHT22;21376;50.954;4.716;2023-05-16T11:42:18;20.80;79.20
35240;DHT22;21376;50.954;4.716;2023-05-16T11:44:43;20.90;74.80
35240;DHT22;21376;50.954;4.716;2023-05-16T11:49:34;20.30;80.50
35240;DHT22;21376;50.954;4.716;2023-05-16T11:52:00;20.50;75.60
35240;DHT22;21376;50.954;4.716;2023-05-16T11:54:26;20.60;77.10
35240;DHT22;21376;50.954;4.716;2023-05-16T11:56:54;21.40;80.00
35240;DHT22;21376;50.954;4.716;2023-05-16T11:59:20;21.40;75.50
35240;DHT22;21376;50.954;4.716;2023-05-16T12:01:49;21.00;79.00
35240;DHT22;21376;50.954;4.716;2023-05-16T12:04:16;21.00;80.10
35240;DHT22;21376;50.954;4.716;2023-05-16T12:06:56;20.60;80.60
35240;DHT22;21376;50.954;4.716;2023-05-16T12:09:21;21.10;78.90
35240;DHT22;21376;50.954;4.716;2023-05-16T12:11:49;20.80;75.80
35240;DHT22;21376;50.954;4.716;2023-05-16T12:14:16;21.20;80.50
35240;DHT22;21376;50.954;4.716;2023-05-16T12:21:52;23.00;77.10
35240;DHT22;21376;50.954;4.716;2023-05-16T12:26:49;24.50;70.90
35240;DHT22;21376;50.954;4.716;2023-05-16T12:29:20;24.20;75.00
35240;DHT22;21376;50.954;4.716;2023-05-16T12:31:48;23.20;73.00
35240;DHT22;21376;50.954;4.716;2023-05-16T12:34:18;22.40;74.70
35240;DHT22;21376;50.954;4.716;2023-05-16T12:36:51;21.70;73.90
35240;DHT22;21376;50.954;4.716;2023-05-16T12:39:19;21.00;77.60
35240;DHT22;21376;50.954;4.716;2023-05-16T12:44:17;20.00;78.40
35240;DHT22;21376;50.954;4.716;2023-05-16T12:46:45;19.50;78.10
35240;DHT22;21376;50.954;4.716;2023-05-16T12:49:13;19.20;83.50
35240;DHT22;21376;50.954;4.716;2023-05-16T12:54:10;19.50;82.60
35240;DHT22;21376;50.954;4.716;2023-05-16T12:56:40;19.90;84.30
35240;DHT22;21376;50.954;4.716;2023-05-16T12:59:06;20.50;81.60
35240;DHT22;21376;50.954;4.716;2023-05-16T13:04:04;20.30;85.90
35240;DHT22;21376;50.954;4.716;2023-05-16T13:06:33;20.60;79.40
35240;DHT22;21376;50.954;4.716;2023-05-16T13:09:00;21.70;76.20
35240;DHT22;21376;50.954;4.716;2023-05-16T13:13:55;23.20;72.30
35240;DHT22;21376;50.954;4.716;2023-05-16T13:16:21;22.60;73.10
35240;DHT22;21376;50.954;4.716;2023-05-16T13:18:49;21.90;74.00
35240;DHT22;21376;50.954;4.716;2023-05-16T13:21:16;21.30;75.50
35240;DHT22;21376;50.954;4.716;2023-05-16T13:23:41;20.90;79.80
35240;DHT22;21376;50.954;4.716;2023-05-16T13:26:19;21.60;79.20
35240;DHT22;21376;50.954;4.716;2023-05-16T13:28:46;22.50;82.00
35240;DHT22;21376;50.954;4.716;2023-05-16T13:33:47;22.30;77.70
35240;DHT22;21376;50.954;4.716;2023-05-16T13:38:45;21.80;77.90
35240;DHT22;21376;50.954;4.716;2023-05-16T13:44:20;20.10;79.30
35240;DHT22;21376;50.954;4.716;2023-05-16T13:46:52;19.70;80.50
35240;DHT22;21376;50.954;4.716;2023-05-16T13:49:18;19.30;80.40
35240;DHT22;21376;50.954;4.716;2023-05-16T13:51:48;19.50;87.90
35240;DHT22;21376;50.954;4.716;2023-05-16T13:56:43;20.30;86.90
35240;DHT22;21376;50.954;4.716;2023-05-16T13:59:14;20.00;85.40
35240;DHT22;21376;50.954;4.716;2023-05-16T14:01:43;19.80;85.10
35240;DHT22;21376;50.954;4.716;2023-05-16T14:04:09;19.30;85.00
35240;DHT22;21376;50.954;4.716;2023-05-16T14:06:40;19.30;85.90
35240;DHT22;21376;50.954;4.716;2023-05-16T14:09:16;19.30;85.70
35240;DHT22;21376;50.954;4.716;2023-05-16T14:11:44;19.20;84.40
35240;DHT22;21376;50.954;4.716;2023-05-16T14:14:10;19.20;80.20
35240;DHT22;21376;50.954;4.716;2023-05-16T14:16:42;19.20;86.40
35240;DHT22;21376;50.954;4.716;2023-05-16T14:19:10;19.30;87.20
35240;DHT22;21376;50.954;4.716;2023-05-16T14:21:36;18.70;85.90
35240;DHT22;21376;50.954;4.716;2023-05-16T14:26:40;17.70;90.00
35240;DHT22;21376;50.954;4.716;2023-05-16T14:31:35;17.50;91.00
35240;DHT22;21376;50.954;4.716;2023-05-16T14:36:34;17.60;91.40
35240;DHT22;21376;50.954;4.716;2023-05-16T14:39:02;18.20;91.60
35240;DHT22;21376;50.954;4.716;2023-05-16T14:41:28;18.40;91.30
35240;DHT22;21376;50.954;4.716;2023-05-16T14:46:22;18.60;91.30
35240;DHT22;21376;50.954;4.716;2023-05-16T14:48:49;18.30;90.80
35240;DHT22;21376;50.954;4.716;2023-05-16T14:51:21;18.30;90.70
35240;DHT22;21376;50.954;4.716;2023-05-16T14:56:21;17.80;91.50
35240;DHT22;21376;50.954;4.716;2023-05-16T14:58:53;17.80;91.30
35240;DHT22;21376;50.954;4.716;2023-05-16T15:01:22;18.00;91.60
35240;DHT22;21376;50.954;4.716;2023-05-16T15:03:52;18.10;91.30
35240;DHT22;21376;50.954;4.716;2023-05-16T15:08:51;17.90;90.70
35240;DHT22;21376;50.954;4.716;2023-05-16T15:14:12;18.30;90.80
35240;DHT22;21376;50.954;4.716;2023-05-16T15:16:39;18.50;89.10
35240;DHT22;21376;50.954;4.716;2023-05-16T15:21:34;18.70;89.40
35240;DHT22;21376;50.954;4.716;2023-05-16T15:24:02;18.50;89.40
35240;DHT22;21376;50.954;4.716;2023-05-16T15:26:30;18.60;88.30
35240;DHT22;21376;50.954;4.716;2023-05-16T15:29:00;18.80;89.40
35240;DHT22;21376;50.954;4.716;2023-05-16T15:31:27;18.60;89.10
35240;DHT22;21376;50.954;4.716;2023-05-16T15:36:25;18.90;90.40
35240;DHT22;21376;50.954;4.716;2023-05-16T15:41:22;18.90;86.70
35240;DHT22;21376;50.954;4.716;2023-05-16T15:43:49;18.90;90.80
35240;DHT22;21376;50.954;4.716;2023-05-16T15:46:16;18.70;88.90
35240;DHT22;21376;50.954;4.716;2023-05-16T15:48:43;18.50;85.20
35240;DHT22;21376;50.954;4.716;2023-05-16T15:51:10;18.00;89.40
35240;DHT22;21376;50.954;4.716;2023-05-16T15:53:38;18.00;90.00
35240;DHT22;21376;50.954;4.716;2023-05-16T15:56:14;18.00;88.50
35240;DHT22;21376;50.954;4.716;2023-05-16T16:01:22;17.80;90.20
35240;DHT22;21376;50.954;4.716;2023-05-16T16:03:51;17.80;89.00
35240;DHT22;21376;50.954;4.716;2023-05-16T16:06:19;18.00;87.30
35240;DHT22;21376;50.954;4.716;2023-05-16T16:08:45;17.90;87.80
35240;DHT22;21376;50.954;4.716;2023-05-16T16:11:11;17.80;90.30
35240;DHT22;21376;50.954;4.716;2023-05-16T16:13:40;17.60;89.80
35240;DHT22;21376;50.954;4.716;2023-05-16T16:16:07;17.80;86.30
35240;DHT22;21376;50.954;4.716;2023-05-16T16:18:35;17.60;86.20
35240;DHT22;21376;50.954;4.716;2023-05-16T16:21:03;17.10;86.60
35240;DHT22;21376;50.954;4.716;2023-05-16T16:23:29;16.90;90.50
35240;DHT22;21376;50.954;4.716;2023-05-16T16:25:57;16.70;89.70
35240;DHT22;21376;50.954;4.716;2023-05-16T16:28:30;16.50;90.20
35240;DHT22;21376;50.954;4.716;2023-05-16T16:33:26;16.50;90.70
35240;DHT22;21376;50.954;4.716;2023-05-16T16:35:53;16.40;92.20
35240;DHT22;21376;50.954;4.716;2023-05-16T16:38:23;16.50;91.80
35240;DHT22;21376;50.954;4.716;2023-05-16T17:18:47;16.50;93.30
35240;DHT22;21376;50.954;4.716;2023-05-16T17:21:13;16.40;94.10
35240;DHT22;21376;50.954;4.716;2023-05-16T17:23:39;16.40;94.70
35240;DHT22;21376;50.954;4.716;2023-05-16T17:28:39;16.40;92.60
35240;DHT22;21376;50.954;4.716;2023-05-16T17:31:11;16.40;93.50
35240;DHT22;21376;50.954;4.716;2023-05-16T17:33:52;16.40;93.30
35240;DHT22;21376;50.954;4.716;2023-05-16T17:38:48;16.40;94.80
35240;DHT22;21376;50.954;4.716;2023-05-16T17:41:15;16.30;93.70
35240;DHT22;21376;50.954;4.716;2023-05-16T17:43:40;16.50;92.90
35240;DHT22;21376;50.954;4.716;2023-05-16T17:46:09;16.60;92.90
35240;DHT22;21376;50.954;4.716;2023-05-16T17:48:37;16.60;94.10
35240;DHT22;21376;50.954;4.716;2023-05-16T17:51:06;16.70;94.20
35240;DHT22;21376;50.954;4.716;2023-05-16T17:53:34;16.60;92.50
35240;DHT22;21376;50.954;4.716;2023-05-16T17:56:08;16.70;92.50
35240;DHT22;21376;50.954;4.716;2023-05-16T17:58:36;16.70;91.80
35240;DHT22;21376;50.954;4.716;2023-05-16T18:06:04;16.30;92.90
35240;DHT22;21376;50.954;4.716;2023-05-16T18:08:31;16.30;95.40
35240;DHT22;21376;50.954;4.716;2023-05-16T18:13:29;16.30;94.20
35240;DHT22;21376;50.954;4.716;2023-05-16T18:15:55;16.10;94.20
35240;DHT22;21376;50.954;4.716;2023-05-16T18:18:21;16.20;94.20
35240;DHT22;21376;50.954;4.716;2023-05-16T18:20:50;16.40;96.40
35240;DHT22;21376;50.954;4.716;2023-05-16T18:23:20;16.30;94.80
35240;DHT22;21376;50.954;4.716;2023-05-16T18:28:14;16.50;94.40
35240;DHT22;21376;50.954;4.716;2023-05-16T18:33:15;16.00;95.70
35240;DHT22;21376;50.954;4.716;2023-05-16T18:35:43;15.90;95.50
35240;DHT22;21376;50.954;4.716;2023-05-16T18:38:12;15.50;97.10
35240;DHT22;21376;50.954;4.716;2023-05-16T18:40:39;15.20;98.60
35240;DHT22;21376;50.954;4.716;2023-05-16T18:43:05;15.20;98.20
35240;DHT22;21376;50.954;4.716;2023-05-16T18:45:32;15.10;98.50
35240;DHT22;21376;50.954;4.716;2023-05-16T18:50:29;14.50;99.90
35240;DHT22;21376;50.954;4.716;2023-05-16T18:52:55;14.20;99.90
35240;DHT22;21376;50.954;4.716;2023-05-16T18:55:23;14.40;99.90
35240;DHT22;21376;50.954;4.716;2023-05-16T18:57:53;14.30;99.90
35240;DHT22;21376;50.954;4.716;2023-05-16T19:00:19;14.30;99.90
35240;DHT22;21376;50.954;4.716;2023-05-16T19:02:45;14.20;99.90
35240;DHT22;21376;50.954;4.716;2023-05-16T19:08:04;14.20;99.90
35240;DHT22;21376;50.954;4.716;2023-05-16T19:10:32;14.00;99.90
35240;DHT22;21376;50.954;4.716;2023-05-16T19:15:39;13.90;99.90
35240;DHT22;21376;50.954;4.716;2023-05-16T19:18:06;13.90;99.90
35240;DHT22;21376;50.954;4.716;2023-05-16T19:20:32;14.00;99.90
35240;DHT22;21376;50.954;4.716;2023-05-16T19:23:01;13.90;99.90
35240;DHT22;21376;50.954;4.716;2023-05-16T19:28:00;13.70;99.90
35240;DHT22;21376;50.954;4.716;2023-05-16T19:30:25;13.70;99.90
35240;DHT22;21376;50.954;4.716;2023-05-16T19:32:51;13.60;99.90
35240;DHT22;21376;50.954;4.716;2023-05-16T19:35:18;13.40;99.90
35240;DHT22;21376;50.954;4.716;2023-05-16T19:37:44;13.30;99.90
35240;DHT22;21376;50.954;4.716;2023-05-16T19:40:13;13.30;99.90
35240;DHT22;21376;50.954;4.716;2023-05-16T19:42:40;13.30;99.90
35240;DHT22;21376;50.954;4.716;2023-05-16T19:45:07;13.40;99.90
35240;DHT22;21376;50.954;4.716;2023-05-16T19:47:32;13.10;99.90
35240;DHT22;21376;50.954;4.716;2023-05-16T19:50:01;12.90;99.90
35240;DHT22;21376;50.954;4.716;2023-05-16T19:52:30;12.80;99.90
35240;DHT22;21376;50.954;4.716;2023-05-16T19:54:56;12.60;99.90
35240;DHT22;21376;50.954;4.716;2023-05-16T19:57:22;12.50;99.90
35240;DHT22;21376;50.954;4.716;2023-05-16T19:59:48;12.50;99.90
35240;DHT22;21376;50.954;4.716;2023-05-16T20:02:13;12.40;99.90
35240;DHT22;21376;50.954;4.716;2023-05-16T20:04:40;12.30;99.90
35240;DHT22;21376;50.954;4.716;2023-05-16T20:09:38;12.10;99.90
35240;DHT22;21376;50.954;4.716;2023-05-16T20:12:10;12.00;99.90
35240;DHT22;21376;50.954;4.716;2023-05-16T20:14:39;12.10;99.90
35240;DHT22;21376;50.954;4.716;2023-05-16T20:17:07;11.90;99.90
35240;DHT22;21376;50.954;4.716;2023-05-16T20:19:33;11.80;99.90
35240;DHT22;21376;50.954;4.716;2023-05-16T20:22:00;11.70;99.90
35240;DHT22;21376;50.954;4.716;2023-05-16T20:24:37;11.70;99.90
35240;DHT22;21376;50.954;4.716;2023-05-16T20:29:31;11.50;99.90
35240;DHT22;21376;50.954;4.716;2023-05-16T20:32:01;11.50;99.90
35240;DHT22;21376;50.954;4.716;2023-05-16T20:34:31;11.50;99.90
35240;DHT22;21376;50.954;4.716;2023-05-16T20:37:09;11.40;99.90
35240;DHT22;21376;50.954;4.716;2023-05-16T20:39:39;11.50;99.90
35240;DHT22;21376;50.954;4.716;2023-05-16T20:42:10;11.40;99.90
35240;DHT22;21376;50.954;4.716;2023-05-16T20:44:36;11.30;99.90
35240;DHT22;21376;50.954;4.716;2023-05-16T20:47:02;11.20;99.90
35240;DHT22;21376;50.954;4.716;2023-05-16T20:49:31;11.10;99.90
35240;DHT22;21376;50.954;4.716;2023-05-16T20:51:58;11.00;99.90
35240;DHT22;21376;50.954;4.716;2023-05-16T20:54:24;11.00;99.90
35240;DHT22;21376;50.954;4.716;2023-05-16T20:56:50;10.80;99.90
35240;DHT22;21376;50.954;4.716;2023-05-16T20:59:16;10.80;99.90
35240;DHT22;21376;50.954;4.716;2023-05-16T21:01:45;10.70;99.90
35240;DHT22;21376;50.954;4.716;2023-05-16T21:04:13;10.80;99.90
35240;DHT22;21376;50.954;4.716;2023-05-16T21:09:11;10.70;99.90
35240;DHT22;21376;50.954;4.716;2023-05-16T21:11:39;10.50;99.90
35240;DHT22;21376;50.954;4.716;2023-05-16T21:14:21;10.40;99.90
35240;DHT22;21376;50.954;4.716;2023-05-16T21:16:47;10.40;99.90